createdAt,value
2022-12-12T00:00:17.986Z,24.83
2022-12-12T00:03:07.616Z,27.93
2022-12-12T00:05:37.347Z,24.93
2022-12-12T00:08:07.627Z,24.97
2022-12-12T00:10:37.140Z,24.77
2022-12-12T00:13:06.649Z,25.00
2022-12-12T00:15:36.088Z,25.03
2022-12-12T00:18:05.648Z,24.30
2022-12-12T00:20:35.147Z,24.07
2022-12-12T00:23:04.752Z,25.13
2022-12-12T00:25:34.194Z,24.63
2022-12-12T00:28:03.717Z,25.13
2022-12-12T00:30:33.011Z,26.83
2022-12-12T00:33:02.516Z,24.87
2022-12-12T00:35:31.963Z,26.93
2022-12-12T00:38:01.274Z,25.40
2022-12-12T00:40:30.929Z,23.73
2022-12-12T00:43:00.212Z,25.50
2022-12-12T00:45:29.902Z,26.17
2022-12-12T00:47:59.280Z,24.63
2022-12-12T00:50:28.945Z,25.43
2022-12-12T00:52:58.410Z,24.93
2022-12-12T00:55:28.737Z,25.43
2022-12-12T00:57:58.310Z,24.30
2022-12-12T01:00:28.037Z,25.50
2022-12-12T01:02:58.633Z,24.10
2022-12-12T01:05:29.958Z,24.77
2022-12-12T01:07:59.470Z,25.93
2022-12-12T01:10:29.083Z,26.03
2022-12-12T01:12:58.770Z,25.43
2022-12-12T01:15:28.455Z,25.97
2022-12-12T01:17:57.938Z,27.67
2022-12-12T01:20:28.896Z,25.53
2022-12-12T01:22:58.412Z,25.80
2022-12-12T01:25:27.803Z,27.37
2022-12-12T01:27:57.298Z,26.33
2022-12-12T01:30:27.141Z,24.37
2022-12-12T01:32:56.786Z,28.77
2022-12-12T01:35:26.227Z,26.90
2022-12-12T01:37:55.530Z,26.60
2022-12-12T01:40:27.212Z,24.40
2022-12-12T01:42:56.546Z,26.62
2022-12-12T01:46:20.507Z,24.80
2022-12-12T01:48:54.975Z,24.37
2022-12-12T01:51:28.122Z,25.50
2022-12-12T01:54:03.418Z,26.83
2022-12-12T01:56:34.037Z,25.57
2022-12-12T01:59:05.880Z,24.73
2022-12-12T02:01:36.250Z,25.12
2022-12-12T02:04:07.912Z,23.57
2022-12-12T02:06:38.365Z,26.97
2022-12-12T02:09:12.141Z,24.20
2022-12-12T02:11:46.667Z,24.00
2022-12-12T02:14:19.284Z,22.93
2022-12-12T02:17:04.804Z,26.70
2022-12-12T02:20:11.783Z,24.87
2022-12-12T02:23:08.043Z,25.87
2022-12-12T02:26:09.519Z,22.83
2022-12-12T02:29:09.350Z,23.93
2022-12-12T02:31:46.937Z,24.90
2022-12-12T02:34:25.525Z,26.17
2022-12-12T02:37:04.807Z,24.37
2022-12-12T02:39:42.973Z,26.63
2022-12-12T02:42:25.784Z,24.03
2022-12-12T02:44:59.997Z,24.53
2022-12-12T02:47:32.468Z,26.10
2022-12-12T02:50:08.233Z,26.85
2022-12-12T02:52:37.887Z,24.97
2022-12-12T02:55:08.773Z,25.67
2022-12-12T02:57:41.274Z,25.03
2022-12-12T03:00:16.663Z,25.00
2022-12-12T03:03:26.467Z,24.70
2022-12-12T03:06:41.019Z,23.80
2022-12-12T03:09:21.384Z,22.33
2022-12-12T03:12:04.702Z,24.00
2022-12-12T03:14:53.640Z,24.40
2022-12-12T03:17:32.631Z,25.10
2022-12-12T03:20:09.878Z,26.50
2022-12-12T03:22:45.072Z,23.33
2022-12-12T03:25:19.616Z,24.23
2022-12-12T03:27:57.287Z,26.20
2022-12-12T03:30:30.049Z,22.87
2022-12-12T03:33:04.683Z,26.45
2022-12-12T03:35:37.469Z,25.50
2022-12-12T03:38:16.571Z,27.35
2022-12-12T03:40:49.329Z,31.37
2022-12-12T03:43:23.176Z,43.73
2022-12-12T03:45:59.286Z,46.20
2022-12-12T03:48:31.334Z,51.23
2022-12-12T03:51:04.498Z,33.13
2022-12-12T03:53:39.994Z,27.60
2022-12-12T03:56:17.478Z,29.57
2022-12-12T03:58:51.490Z,26.13
2022-12-12T04:01:26.010Z,26.20
2022-12-12T04:04:00.476Z,24.90
2022-12-12T04:06:35.765Z,25.47
2022-12-12T04:09:26.705Z,24.50
2022-12-12T04:12:22.369Z,27.00
2022-12-12T04:15:19.738Z,27.10
2022-12-12T04:18:02.308Z,35.80
2022-12-12T04:21:02.962Z,32.40
2022-12-12T04:23:45.318Z,29.33
2022-12-12T04:26:36.422Z,24.70
2022-12-12T04:29:22.789Z,25.77
2022-12-12T04:31:58.651Z,25.53
2022-12-12T04:34:36.336Z,29.70
2022-12-12T04:37:09.154Z,31.73
2022-12-12T04:39:42.566Z,38.83
2022-12-12T04:42:17.889Z,31.63
2022-12-12T04:44:49.011Z,32.67
2022-12-12T04:47:20.946Z,34.17
2022-12-12T04:49:52.633Z,31.23
2022-12-12T04:52:25.100Z,27.95
2022-12-12T04:57:32.874Z,24.93
2022-12-12T05:00:02.333Z,25.73
2022-12-12T05:02:40.097Z,29.87
2022-12-12T05:05:16.489Z,32.10
2022-12-12T05:07:53.498Z,33.60
2022-12-12T05:10:23.340Z,38.67
2022-12-12T05:12:59.850Z,33.53
2022-12-12T05:15:29.996Z,33.30
2022-12-12T05:18:03.434Z,33.53
2022-12-12T05:20:33.239Z,32.57
2022-12-12T05:23:02.867Z,28.80
2022-12-12T05:25:32.829Z,28.47
2022-12-12T05:28:02.164Z,26.67
2022-12-12T05:30:31.703Z,28.50
2022-12-12T05:33:01.199Z,27.40
2022-12-12T05:35:30.649Z,26.00
2022-12-12T05:38:00.977Z,25.97
2022-12-12T05:40:30.546Z,27.50
2022-12-12T05:43:00.541Z,26.80
2022-12-12T05:45:29.945Z,28.67
2022-12-12T05:48:00.080Z,34.97
2022-12-12T05:50:29.357Z,32.30
2022-12-12T05:52:58.841Z,30.17
2022-12-12T05:55:28.187Z,30.37
2022-12-12T05:57:57.625Z,33.20
2022-12-12T06:00:27.041Z,31.80
2022-12-12T06:02:56.592Z,30.57
2022-12-12T06:05:26.221Z,29.97
2022-12-12T06:07:57.925Z,32.88
2022-12-12T06:10:27.471Z,30.30
2022-12-12T06:12:56.875Z,28.30
2022-12-12T06:15:26.261Z,28.33
2022-12-12T06:17:58.095Z,26.87
2022-12-12T06:20:30.035Z,28.45
2022-12-12T06:22:59.436Z,28.35
2022-12-12T06:25:29.465Z,31.53
2022-12-12T06:27:59.332Z,37.57
2022-12-12T06:30:29.010Z,35.43
2022-12-12T06:32:58.450Z,33.60
2022-12-12T06:35:28.441Z,33.37
2022-12-12T06:37:58.151Z,29.30
2022-12-12T06:40:27.443Z,30.07
2022-12-12T06:42:57.064Z,29.60
2022-12-12T06:45:26.479Z,29.13
2022-12-12T06:47:56.181Z,32.87
2022-12-12T06:50:25.728Z,27.60
2022-12-12T06:52:55.134Z,28.93
2022-12-12T06:55:24.585Z,28.30
2022-12-12T06:57:54.066Z,29.23
2022-12-12T07:00:23.829Z,28.20
2022-12-12T07:02:53.322Z,27.43
2022-12-12T07:05:23.692Z,27.87
2022-12-12T07:07:53.100Z,36.07
2022-12-12T07:10:22.645Z,27.07
2022-12-12T07:12:57.219Z,24.33
2022-12-12T07:15:27.273Z,38.53
2022-12-12T07:17:58.290Z,35.00
2022-12-12T07:20:27.987Z,32.70
2022-12-12T07:22:59.520Z,32.67
2022-12-12T07:25:29.170Z,30.47
2022-12-12T07:27:58.646Z,29.90
2022-12-12T07:30:28.147Z,28.37
2022-12-12T07:32:57.879Z,28.13
2022-12-12T07:35:28.387Z,29.57
2022-12-12T07:37:58.097Z,26.20
2022-12-12T07:40:31.686Z,29.80
2022-12-12T07:43:02.530Z,26.50
2022-12-12T07:45:32.341Z,26.83
2022-12-12T07:48:01.795Z,24.93
2022-12-12T07:50:31.353Z,27.03
2022-12-12T07:53:00.839Z,27.90
2022-12-12T07:55:30.401Z,26.97
2022-12-12T07:58:12.670Z,25.63
2022-12-12T08:00:42.670Z,26.07
2022-12-12T08:03:12.239Z,28.07
2022-12-12T08:05:42.446Z,26.27
2022-12-12T08:08:12.143Z,25.27
2022-12-12T08:10:45.115Z,26.60
2022-12-12T08:13:14.555Z,25.27
2022-12-12T08:15:44.229Z,25.63
2022-12-12T08:18:14.171Z,24.63
2022-12-12T08:20:43.826Z,24.30
2022-12-12T08:23:14.048Z,25.07
2022-12-12T08:25:46.175Z,25.37
2022-12-12T08:28:15.627Z,22.40
2022-12-12T08:30:50.360Z,26.37
2022-12-12T08:33:19.878Z,25.60
2022-12-12T08:35:50.260Z,23.90
2022-12-12T08:38:20.033Z,25.17
2022-12-12T08:40:53.243Z,24.03
2022-12-12T08:43:22.607Z,22.47
2022-12-12T08:45:52.405Z,20.43
2022-12-12T08:48:21.830Z,23.15
2022-12-12T08:50:53.064Z,22.80
2022-12-12T08:53:22.528Z,21.53
2022-12-12T08:55:52.307Z,20.63
2022-12-12T08:58:22.945Z,22.23
2022-12-12T09:00:53.059Z,22.97
2022-12-12T09:03:28.874Z,23.40
2022-12-12T09:05:58.980Z,21.40
2022-12-12T09:08:28.454Z,21.50
2022-12-12T09:10:58.627Z,22.03
2022-12-12T09:13:28.380Z,21.30
2022-12-12T09:16:00.046Z,23.70
2022-12-12T09:18:34.031Z,23.83
2022-12-12T09:21:03.699Z,22.03
2022-12-12T09:23:34.054Z,21.57
2022-12-12T09:26:07.505Z,21.80
2022-12-12T09:28:36.969Z,22.90
2022-12-12T09:31:09.036Z,18.70
2022-12-12T09:33:39.826Z,21.12
2022-12-12T09:36:11.469Z,18.83
2022-12-12T09:38:41.070Z,22.58
2022-12-12T09:41:17.429Z,17.73
2022-12-12T09:43:54.913Z,20.27
2022-12-12T09:46:37.023Z,18.90
2022-12-12T09:49:13.935Z,18.17
2022-12-12T09:51:47.747Z,18.20
2022-12-12T09:54:20.815Z,19.20
2022-12-12T09:57:06.412Z,17.30
2022-12-12T09:59:44.547Z,17.80
2022-12-12T10:02:50.753Z,18.23
2022-12-12T10:05:34.655Z,17.93
2022-12-12T10:08:14.275Z,20.40
2022-12-12T10:10:48.191Z,18.20
2022-12-12T10:13:21.475Z,18.47
2022-12-12T10:15:54.793Z,17.27
2022-12-12T10:18:31.315Z,17.87
2022-12-12T10:21:05.341Z,17.30
2022-12-12T10:23:40.324Z,18.43
2022-12-12T10:26:15.337Z,16.47
2022-12-12T10:28:48.190Z,16.97
2022-12-12T10:31:32.782Z,17.73
2022-12-12T10:34:26.226Z,15.60
2022-12-12T10:37:08.646Z,16.70
2022-12-12T10:42:22.433Z,19.93
2022-12-12T10:45:18.358Z,15.57
2022-12-12T10:47:47.830Z,16.87
2022-12-12T10:50:27.115Z,17.93
2022-12-12T10:52:57.565Z,17.73
2022-12-12T10:55:41.065Z,17.23
2022-12-12T10:58:10.588Z,15.37
2022-12-12T11:00:43.270Z,17.13
2022-12-12T11:03:28.491Z,15.27
2022-12-12T11:06:25.344Z,15.33
2022-12-12T11:09:06.852Z,14.57
2022-12-12T11:11:37.114Z,16.63
2022-12-12T11:14:28.725Z,17.50
2022-12-12T11:17:46.422Z,15.87
2022-12-12T11:20:23.079Z,15.67
2022-12-12T11:23:21.207Z,14.90
2022-12-12T11:26:04.636Z,15.33
2022-12-12T11:28:38.511Z,15.40
2022-12-12T11:31:16.965Z,15.47
2022-12-12T11:33:52.781Z,16.53
2022-12-12T11:36:46.400Z,16.35
2022-12-12T11:39:47.608Z,16.90
2022-12-12T11:42:38.615Z,15.80
2022-12-12T11:45:27.335Z,15.13
2022-12-12T11:48:01.375Z,16.70
2022-12-12T11:50:45.326Z,15.85
2022-12-12T11:53:14.767Z,14.83
2022-12-12T11:56:05.399Z,16.57
2022-12-12T11:58:46.219Z,14.23
2022-12-12T12:01:31.177Z,16.63
2022-12-12T12:04:24.943Z,16.87
2022-12-12T12:07:10.512Z,16.90
2022-12-12T12:09:49.487Z,16.87
2022-12-12T12:12:25.039Z,15.50
2022-12-12T12:15:20.878Z,16.57
2022-12-12T12:18:09.564Z,18.70
2022-12-12T12:20:54.540Z,18.03
2022-12-12T12:23:41.213Z,18.10
2022-12-12T12:26:18.371Z,17.57
2022-12-12T12:29:18.796Z,19.07
2022-12-12T12:32:08.257Z,18.60
2022-12-12T12:34:52.174Z,16.60
2022-12-12T12:37:37.551Z,20.13
2022-12-12T12:40:19.489Z,17.33
2022-12-12T12:43:09.305Z,18.12
2022-12-12T12:45:45.382Z,16.60
2022-12-12T12:48:23.081Z,19.80
2022-12-12T12:51:03.092Z,18.10
2022-12-12T12:53:43.892Z,16.77
2022-12-12T12:56:26.200Z,17.60
2022-12-12T12:59:14.363Z,17.33
2022-12-12T13:02:01.776Z,17.90
2022-12-12T13:04:41.270Z,17.90
2022-12-12T13:07:21.565Z,20.07
2022-12-12T13:33:05.843Z,20.80
2022-12-12T13:35:46.697Z,22.03
2022-12-12T13:38:27.154Z,23.90
2022-12-12T13:40:59.220Z,21.40
2022-12-12T13:43:45.660Z,23.53
2022-12-12T13:46:42.154Z,23.73
2022-12-12T13:49:39.275Z,23.70
2022-12-12T13:52:27.208Z,23.83
2022-12-12T13:55:20.839Z,23.10
2022-12-12T13:58:27.084Z,26.77
2022-12-12T14:01:28.650Z,25.97
2022-12-12T14:04:00.434Z,23.33
2022-12-12T14:06:31.437Z,21.40
2022-12-12T14:09:01.216Z,23.43
2022-12-12T14:11:36.067Z,25.03
2022-12-12T14:14:21.254Z,24.80
2022-12-12T14:16:56.067Z,23.97
2022-12-12T14:19:41.396Z,22.50
2022-12-12T14:22:27.644Z,24.87
2022-12-12T14:25:06.672Z,21.03
2022-12-12T14:28:12.052Z,23.53
2022-12-12T14:30:49.147Z,26.47
2022-12-12T14:34:02.898Z,23.03
2022-12-12T14:36:53.438Z,24.93
2022-12-12T14:39:49.175Z,29.00
2022-12-12T14:43:19.035Z,26.27
2022-12-12T14:45:32.883Z,27.70
2022-12-12T14:48:16.288Z,27.50
2022-12-12T14:50:50.116Z,27.43
2022-12-12T14:53:23.828Z,24.90
2022-12-12T14:56:00.175Z,24.87
2022-12-12T14:58:37.616Z,27.50
2022-12-12T15:01:10.653Z,32.37
2022-12-12T15:03:45.671Z,27.93
2022-12-12T15:06:34.087Z,38.80
2022-12-12T15:09:29.565Z,37.10
2022-12-12T15:12:16.478Z,30.35
2022-12-12T15:14:55.633Z,25.00
2022-12-12T15:17:29.081Z,26.23
2022-12-12T15:20:00.976Z,28.57
2022-12-12T15:22:32.959Z,23.75
2022-12-12T15:25:05.500Z,25.60
2022-12-12T15:27:48.121Z,25.50
2022-12-12T15:30:32.242Z,24.37
2022-12-12T15:33:07.072Z,25.57
2022-12-12T15:35:36.867Z,26.00
2022-12-12T15:38:12.544Z,25.60
2022-12-12T15:40:50.484Z,28.07
2022-12-12T15:43:23.079Z,29.90
2022-12-12T15:45:54.834Z,26.45
2022-12-12T15:48:25.473Z,22.23
2022-12-12T15:50:58.404Z,19.10
2022-12-12T15:53:30.978Z,18.97
2022-12-12T15:56:05.087Z,19.90
2022-12-12T15:58:38.310Z,18.30
2022-12-12T16:01:20.389Z,19.50
2022-12-12T16:03:58.801Z,21.50
2022-12-12T16:06:31.382Z,22.60
2022-12-12T16:09:08.330Z,20.60
2022-12-12T16:11:45.192Z,16.77
2022-12-12T16:14:41.383Z,17.60
2022-12-12T16:17:17.461Z,17.27
2022-12-12T16:19:54.885Z,16.43
2022-12-12T16:22:35.167Z,18.73
2022-12-12T16:25:18.350Z,18.00
2022-12-12T16:27:51.709Z,16.57
2022-12-12T16:30:21.207Z,17.13
2022-12-12T16:32:50.783Z,19.07
2022-12-12T16:35:23.269Z,16.47
2022-12-12T16:37:52.922Z,15.60
2022-12-12T16:40:23.454Z,18.07
2022-12-12T16:43:07.786Z,21.20
2022-12-12T16:45:42.157Z,19.93
2022-12-12T16:48:16.606Z,19.10
2022-12-12T16:50:47.173Z,17.70
2022-12-12T16:53:22.936Z,15.83
2022-12-12T16:55:54.208Z,16.60
2022-12-12T16:58:24.552Z,15.68
2022-12-12T17:00:55.545Z,15.60
2022-12-12T17:03:26.456Z,17.95
2022-12-12T17:05:56.115Z,18.77
2022-12-12T17:08:26.211Z,17.33
2022-12-12T17:11:10.258Z,18.27
2022-12-12T17:13:46.362Z,19.97
2022-12-12T17:16:16.524Z,16.77
2022-12-12T17:18:46.207Z,20.40
2022-12-12T17:21:21.719Z,23.83
2022-12-12T17:23:51.165Z,19.53
2022-12-12T17:26:20.596Z,22.23
2022-12-12T17:29:09.079Z,25.43
2022-12-12T17:31:44.837Z,21.93
2022-12-12T17:34:16.358Z,17.97
2022-12-12T17:36:46.180Z,16.77
2022-12-12T17:39:15.533Z,18.17
2022-12-12T17:41:45.006Z,19.60
2022-12-12T17:44:15.054Z,19.87
2022-12-12T17:46:45.655Z,22.30
2022-12-12T17:49:21.903Z,18.20
2022-12-12T17:51:52.992Z,20.37
2022-12-12T17:54:22.726Z,19.13
2022-12-12T17:56:52.799Z,22.00
2022-12-12T17:59:22.691Z,26.93
2022-12-12T18:01:53.523Z,25.67
2022-12-12T18:04:27.922Z,24.73
2022-12-12T18:06:58.009Z,24.63
2022-12-12T18:09:27.941Z,21.33
2022-12-12T18:11:58.017Z,19.80
2022-12-12T18:14:28.201Z,18.47
2022-12-12T18:16:57.684Z,18.10
2022-12-12T18:19:29.545Z,18.47
2022-12-12T18:22:01.246Z,16.77
2022-12-12T18:24:32.624Z,18.17
2022-12-12T18:27:02.953Z,19.83
2022-12-12T18:29:32.758Z,17.27
2022-12-12T18:32:04.409Z,18.03
2022-12-12T18:34:34.065Z,22.33
2022-12-12T18:37:06.247Z,17.90
2022-12-12T18:39:36.001Z,15.60
2022-12-12T18:42:07.050Z,16.43
2022-12-12T18:44:36.553Z,18.07
2022-12-12T18:47:06.290Z,17.47
2022-12-12T18:49:36.318Z,16.93
2022-12-12T18:52:06.736Z,18.60
2022-12-12T18:54:36.846Z,19.83
2022-12-12T18:57:07.000Z,20.20
2022-12-12T18:59:38.016Z,21.63
2022-12-12T19:02:08.459Z,19.73
2022-12-12T19:04:57.752Z,21.03
2022-12-12T19:07:27.828Z,19.77
2022-12-12T19:09:57.867Z,18.57
2022-12-12T19:12:30.457Z,18.47
2022-12-12T19:15:16.388Z,15.93
2022-12-12T19:17:49.589Z,18.00
2022-12-12T19:20:19.285Z,18.33
2022-12-12T19:22:49.190Z,17.77
2022-12-12T19:25:20.747Z,19.37
2022-12-12T19:27:50.216Z,19.73
2022-12-12T19:30:21.932Z,20.70
2022-12-12T19:33:10.248Z,19.47
2022-12-12T19:35:45.688Z,19.57
2022-12-12T19:38:33.956Z,20.70
2022-12-12T19:41:04.547Z,20.00
2022-12-12T19:43:34.416Z,19.70
2022-12-12T19:46:08.734Z,21.17
2022-12-12T19:48:40.020Z,20.10
2022-12-12T19:51:11.899Z,22.23
2022-12-12T19:56:59.111Z,21.17
2022-12-12T19:59:28.538Z,21.87
2022-12-12T20:02:00.099Z,19.53
2022-12-12T20:04:30.027Z,22.93
2022-12-12T20:07:18.652Z,23.77
2022-12-12T20:09:50.111Z,23.60
2022-12-12T20:12:44.206Z,23.87
2022-12-12T20:15:20.829Z,23.53
2022-12-12T20:17:50.802Z,25.57
2022-12-12T20:20:20.766Z,26.57
2022-12-12T20:22:50.877Z,26.13
2022-12-12T20:25:20.215Z,25.10
2022-12-12T20:27:49.755Z,28.73
2022-12-12T20:30:20.343Z,28.27
2022-12-12T20:32:49.734Z,26.63
2022-12-12T20:35:19.738Z,26.00
2022-12-12T20:37:49.138Z,26.20
2022-12-12T20:40:18.817Z,27.93
2022-12-12T20:43:06.546Z,29.13
2022-12-12T20:45:38.660Z,29.67
2022-12-12T20:48:08.116Z,23.30
2022-12-12T20:50:37.595Z,25.83
2022-12-12T20:53:06.985Z,26.20
2022-12-12T20:55:42.672Z,26.07
2022-12-12T20:58:12.102Z,27.77
2022-12-12T21:00:41.470Z,26.50
2022-12-12T21:03:11.048Z,27.53
2022-12-12T21:05:43.587Z,23.33
2022-12-12T21:08:13.122Z,25.83
2022-12-12T21:10:42.667Z,22.87
2022-12-12T21:13:12.288Z,22.00
2022-12-12T21:15:41.839Z,22.77
2022-12-12T21:18:11.287Z,22.20
2022-12-12T21:20:58.799Z,23.37
2022-12-12T21:23:28.302Z,25.20
2022-12-12T21:25:57.705Z,24.40
2022-12-12T21:28:27.111Z,25.23
2022-12-12T21:30:56.977Z,23.33
2022-12-12T21:33:27.914Z,26.17
2022-12-12T21:36:02.429Z,26.40
2022-12-12T21:38:33.190Z,22.80
2022-12-12T21:41:08.652Z,24.20
2022-12-12T21:43:38.115Z,25.17
2022-12-12T21:46:10.015Z,25.13
2022-12-12T21:48:39.901Z,25.35
2022-12-12T21:51:14.150Z,26.03
2022-12-12T21:53:44.744Z,22.33
2022-12-12T21:56:32.709Z,24.53
2022-12-12T21:59:03.236Z,24.27
2022-12-12T22:01:33.904Z,24.00
2022-12-12T22:04:03.681Z,26.13
2022-12-12T22:06:35.080Z,22.77
2022-12-12T22:09:07.644Z,25.50
2022-12-12T22:14:20.262Z,23.87
2022-12-12T22:16:50.471Z,24.25
2022-12-12T22:19:19.866Z,24.07
2022-12-12T22:21:49.436Z,26.13
2022-12-12T22:24:19.639Z,27.03
2022-12-12T22:26:50.077Z,26.53
2022-12-12T22:29:21.032Z,25.83
2022-12-12T22:31:51.888Z,27.80
2022-12-12T22:34:23.360Z,27.40
2022-12-12T22:36:53.947Z,25.15
2022-12-12T22:39:25.445Z,24.77
2022-12-12T22:41:57.320Z,23.33
2022-12-12T22:44:26.735Z,27.77
2022-12-12T22:46:56.464Z,25.10
2022-12-12T22:49:27.068Z,27.40
2022-12-12T22:51:57.769Z,26.63
2022-12-12T22:54:27.268Z,25.57
2022-12-12T22:56:56.607Z,23.33
2022-12-12T22:59:26.601Z,24.07
2022-12-12T23:01:56.101Z,23.50
2022-12-12T23:04:25.622Z,23.23
2022-12-12T23:06:55.375Z,25.57
2022-12-12T23:09:25.637Z,23.00
2022-12-12T23:11:55.190Z,22.90
2022-12-12T23:14:26.350Z,25.05
2022-12-12T23:17:00.890Z,24.70
2022-12-12T23:19:30.248Z,23.73
2022-12-12T23:21:59.803Z,20.53
2022-12-12T23:24:29.082Z,21.07
2022-12-12T23:26:58.865Z,20.50
2022-12-12T23:29:30.417Z,20.73
2022-12-12T23:32:12.651Z,20.97
2022-12-12T23:34:41.936Z,19.33
2022-12-12T23:37:11.333Z,22.07
2022-12-12T23:39:40.861Z,20.20
2022-12-12T23:42:10.188Z,21.57
2022-12-12T23:44:39.478Z,19.97
2022-12-12T23:47:08.795Z,21.40
2022-12-12T23:49:38.227Z,19.97
2022-12-12T23:52:07.598Z,20.90
2022-12-12T23:54:37.016Z,20.50
2022-12-12T23:57:06.449Z,22.37
2022-12-12T23:59:35.825Z,20.20
